createdAt,value
2022-10-07T00:02:21.758Z,102719.56
2022-10-07T00:04:51.101Z,102713.94
2022-10-07T00:07:20.353Z,102718.78
2022-10-07T00:09:49.557Z,102712.28
2022-10-07T00:12:19.115Z,102717.03
2022-10-07T00:14:48.403Z,102717.44
2022-10-07T00:17:17.682Z,102715.44
2022-10-07T00:19:46.955Z,102702.91
2022-10-07T00:22:16.258Z,102700.09
2022-10-07T00:24:45.608Z,102697.66
2022-10-07T00:27:14.842Z,102701.22
2022-10-07T00:29:44.146Z,102692.78
2022-10-07T00:32:13.384Z,102706.50
2022-10-07T00:34:42.627Z,102698.06
2022-10-07T00:37:11.866Z,102694.81
2022-10-07T00:39:41.116Z,102699.19
2022-10-07T00:42:10.421Z,102692.72
2022-10-07T00:44:49.550Z,102690.25
2022-10-07T00:47:36.780Z,102682.22
2022-10-07T00:50:30.570Z,102683.00
2022-10-07T00:53:04.703Z,102678.00
2022-10-07T00:55:35.420Z,102668.41
2022-10-07T00:58:08.810Z,102667.59
2022-10-07T01:00:42.552Z,102661.16
2022-10-07T01:03:11.860Z,102664.78
2022-10-07T01:05:41.244Z,102658.72
2022-10-07T01:08:15.721Z,102648.22
2022-10-07T01:11:01.287Z,102660.75
2022-10-07T01:13:42.767Z,102651.47
2022-10-07T01:16:29.599Z,102655.50
2022-10-07T01:19:21.289Z,102649.00
2022-10-07T01:22:14.185Z,102645.84
2022-10-07T01:24:46.659Z,102637.81
2022-10-07T01:27:21.604Z,102645.06
2022-10-07T01:29:58.549Z,102634.63
2022-10-07T01:32:36.744Z,102626.56
2022-10-07T01:35:10.623Z,102624.91
2022-10-07T01:37:46.741Z,102615.59
2022-10-07T01:40:20.823Z,102611.19
2022-10-07T01:42:51.986Z,102607.16
2022-10-07T01:45:23.405Z,102598.28
2022-10-07T01:47:53.664Z,102603.94
2022-10-07T01:50:28.722Z,102603.16
2022-10-07T01:53:12.937Z,102595.09
2022-10-07T01:56:07.611Z,102588.22
2022-10-07T01:58:49.832Z,102591.75
2022-10-07T02:01:31.628Z,102590.94
2022-10-07T02:04:39.055Z,102585.28
2022-10-07T02:07:21.895Z,102576.34
2022-10-07T02:09:51.311Z,102573.97
2022-10-07T02:12:31.336Z,102582.81
2022-10-07T02:15:47.806Z,102574.41
2022-10-07T02:18:20.390Z,102567.91
2022-10-07T02:20:51.998Z,102567.91
2022-10-07T02:23:25.460Z,102567.47
2022-10-07T02:25:57.467Z,102564.22
2022-10-07T02:28:28.092Z,102558.56
2022-10-07T02:31:02.753Z,102563.41
2022-10-07T02:33:36.691Z,102552.16
2022-10-07T02:36:13.823Z,102540.09
2022-10-07T02:38:43.526Z,102541.28
2022-10-07T02:41:33.831Z,102541.72
2022-10-07T02:44:34.183Z,102540.88
2022-10-07T02:47:06.339Z,102536.84
2022-10-07T02:49:40.346Z,102526.34
2022-10-07T02:52:14.022Z,102520.72
2022-10-07T02:54:48.582Z,102523.91
2022-10-07T02:57:21.691Z,102524.28
2022-10-07T02:59:53.854Z,102522.25
2022-10-07T03:02:30.306Z,102516.63
2022-10-07T03:05:01.010Z,102514.25
2022-10-07T03:07:31.374Z,102507.84
2022-10-07T03:10:01.873Z,102515.03
2022-10-07T03:12:31.384Z,102504.50
2022-10-07T03:15:01.468Z,102511.03
2022-10-07T03:17:30.826Z,102490.81
2022-10-07T03:20:00.564Z,102494.06
2022-10-07T03:22:29.955Z,102498.09
2022-10-07T03:24:59.332Z,102499.31
2022-10-07T03:27:28.939Z,102488.44
2022-10-07T03:29:58.649Z,102497.66
2022-10-07T03:32:29.078Z,102490.88
2022-10-07T03:34:59.457Z,102494.06
2022-10-07T03:37:29.700Z,102484.72
2022-10-07T03:40:01.437Z,102468.94
2022-10-07T03:42:30.754Z,102485.16
2022-10-07T03:45:00.224Z,102469.31
2022-10-07T03:47:30.684Z,102479.84
2022-10-07T03:49:59.986Z,102485.06
2022-10-07T03:52:29.281Z,102473.78
2022-10-07T03:54:59.535Z,102465.69
2022-10-07T03:57:41.487Z,102472.94
2022-10-07T04:00:11.439Z,102468.13
2022-10-07T04:02:44.277Z,102464.13
2022-10-07T04:05:15.900Z,102471.75
2022-10-07T04:07:47.771Z,102461.69
2022-10-07T04:10:20.455Z,102461.69
2022-10-07T04:12:52.347Z,102464.13
2022-10-07T04:15:23.067Z,102464.13
2022-10-07T04:17:58.707Z,102460.97
2022-10-07T04:20:29.166Z,102463.72
2022-10-07T04:22:58.685Z,102462.56
2022-10-07T04:25:38.570Z,102453.69
2022-10-07T04:28:20.313Z,102455.28
2022-10-07T04:30:54.054Z,102456.94
2022-10-07T04:33:30.052Z,102450.88
2022-10-07T04:36:05.513Z,102457.72
2022-10-07T04:38:35.530Z,102457.66
2022-10-07T04:41:08.261Z,102458.88
2022-10-07T04:43:39.713Z,102460.09
2022-10-07T04:46:15.347Z,102452.91
2022-10-07T04:48:50.731Z,102458.53
2022-10-07T04:51:25.379Z,102458.50
2022-10-07T04:53:58.346Z,102421.38
2022-10-07T04:56:33.393Z,102437.97
2022-10-07T04:59:05.162Z,102435.94
2022-10-07T05:01:34.857Z,102443.56
2022-10-07T05:04:04.760Z,102435.50
2022-10-07T05:06:35.562Z,102437.13
2022-10-07T05:09:04.851Z,102436.72
2022-10-07T05:11:37.679Z,102437.47
2022-10-07T05:14:15.230Z,102429.50
2022-10-07T05:16:44.681Z,102430.75
2022-10-07T05:19:15.063Z,102429.50
2022-10-07T05:21:45.090Z,102415.00
2022-10-07T05:24:14.582Z,102412.63
2022-10-07T05:26:44.699Z,102421.44
2022-10-07T05:29:14.196Z,102423.06
2022-10-07T05:31:49.432Z,102423.47
2022-10-07T05:34:22.887Z,102421.50
2022-10-07T05:36:52.834Z,102430.34
2022-10-07T05:39:22.726Z,102422.72
2022-10-07T05:41:55.859Z,102418.28
2022-10-07T05:44:32.357Z,102419.06
2022-10-07T05:47:04.836Z,102423.06
2022-10-07T05:49:36.237Z,102418.28
2022-10-07T05:52:07.945Z,102421.09
2022-10-07T05:54:38.739Z,102412.22
2022-10-07T05:57:09.005Z,102411.88
2022-10-07T05:59:38.922Z,102409.81
2022-10-07T06:02:12.079Z,102411.41
2022-10-07T06:04:43.343Z,102408.63
2022-10-07T06:07:19.523Z,102397.41
2022-10-07T06:10:03.772Z,102397.03
2022-10-07T06:12:46.695Z,102400.66
2022-10-07T06:15:17.531Z,102398.25
2022-10-07T06:17:50.364Z,102387.84
2022-10-07T06:20:23.042Z,102395.94
2022-10-07T06:22:59.031Z,102391.97
2022-10-07T06:25:30.400Z,102400.88
2022-10-07T06:28:01.868Z,102394.50
2022-10-07T06:30:33.096Z,102396.59
2022-10-07T06:33:04.706Z,102398.63
2022-10-07T06:35:35.374Z,102401.91
2022-10-07T06:38:05.526Z,102389.50
2022-10-07T06:40:36.535Z,102393.59
2022-10-07T06:43:06.451Z,102390.50
2022-10-07T06:45:49.210Z,102391.75
2022-10-07T06:48:19.459Z,102395.84
2022-10-07T06:50:58.728Z,102369.28
2022-10-07T06:53:31.418Z,102388.75
2022-10-07T06:56:07.176Z,102387.22
2022-10-07T06:58:38.682Z,102387.72
2022-10-07T07:01:10.391Z,102388.22
2022-10-07T07:03:40.666Z,102389.97
2022-10-07T07:06:12.861Z,102394.44
2022-10-07T07:08:46.175Z,102396.53
2022-10-07T07:11:29.765Z,102396.22
2022-10-07T07:14:03.676Z,102396.69
2022-10-07T07:16:35.527Z,102386.22
2022-10-07T07:19:09.067Z,102399.13
2022-10-07T07:21:41.508Z,102396.31
2022-10-07T07:24:15.531Z,102394.69
2022-10-07T07:26:46.975Z,102400.72
2022-10-07T07:29:17.896Z,102407.16
2022-10-07T07:31:52.465Z,102395.84
2022-10-07T07:34:25.200Z,102403.88
2022-10-07T07:36:55.447Z,102394.16
2022-10-07T07:39:29.847Z,102390.03
2022-10-07T07:42:07.911Z,102389.56
2022-10-07T07:44:40.484Z,102396.31
2022-10-07T07:47:16.611Z,102389.69
2022-10-07T07:49:47.444Z,102392.81
2022-10-07T07:52:25.860Z,102399.22
2022-10-07T07:54:59.790Z,102390.63
2022-10-07T07:57:31.165Z,102396.22
2022-10-07T08:00:05.671Z,102398.09
2022-10-07T08:02:44.122Z,102400.44
2022-10-07T08:05:23.942Z,102390.59
2022-10-07T08:07:59.067Z,102393.44
2022-10-07T08:10:30.423Z,102397.38
2022-10-07T08:13:00.589Z,102393.56
2022-10-07T08:15:31.026Z,102396.69
2022-10-07T08:18:01.398Z,102384.38
2022-10-07T08:20:32.047Z,102384.28
2022-10-07T08:23:03.222Z,102383.81
2022-10-07T08:25:35.107Z,102376.44
2022-10-07T08:28:07.968Z,102371.91
2022-10-07T08:30:39.039Z,102373.78
2022-10-07T08:33:09.483Z,102368.50
2022-10-07T08:35:40.407Z,102374.16
2022-10-07T08:38:14.514Z,102368.22
2022-10-07T08:40:53.463Z,102354.44
2022-10-07T08:43:26.745Z,102362.69
2022-10-07T08:46:00.199Z,102364.03
2022-10-07T08:48:39.296Z,102356.53
2022-10-07T08:51:20.327Z,102353.81
2022-10-07T08:53:59.193Z,102352.69
2022-10-07T08:56:32.390Z,102348.47
2022-10-07T08:59:11.822Z,102354.84
2022-10-07T09:02:09.575Z,102343.13
2022-10-07T09:05:01.729Z,102339.63
2022-10-07T09:07:55.201Z,102345.13
2022-10-07T09:10:37.688Z,102344.91
2022-10-07T09:13:10.710Z,102337.31
2022-10-07T09:16:15.178Z,102332.16
2022-10-07T09:18:54.767Z,102330.25
2022-10-07T09:21:32.473Z,102335.69
2022-10-07T09:24:30.818Z,102320.81
2022-10-07T09:27:11.634Z,102324.47
2022-10-07T09:29:42.029Z,102316.78
2022-10-07T09:32:18.928Z,102317.34
2022-10-07T09:34:49.744Z,102312.34
2022-10-07T09:37:21.967Z,102316.97
2022-10-07T09:39:57.355Z,102306.13
2022-10-07T09:42:29.935Z,102305.25
2022-10-07T09:45:03.050Z,102304.97
2022-10-07T09:47:42.221Z,102299.16
2022-10-07T09:50:33.966Z,102298.81
2022-10-07T09:53:04.925Z,102297.91
2022-10-07T09:55:42.113Z,102290.81
2022-10-07T09:58:30.078Z,102295.91
2022-10-07T10:01:02.545Z,102284.59
2022-10-07T10:03:33.914Z,102281.63
2022-10-07T10:06:06.764Z,102279.13
2022-10-07T10:08:42.717Z,102282.53
2022-10-07T10:11:21.975Z,102286.63
2022-10-07T10:13:54.249Z,102280.16
2022-10-07T10:16:27.762Z,102275.91
2022-10-07T10:19:24.343Z,102281.16
2022-10-07T10:21:59.606Z,102280.38
2022-10-07T10:24:45.861Z,102265.47
2022-10-07T10:27:25.959Z,102260.97
2022-10-07T10:30:04.442Z,102264.75
2022-10-07T10:33:01.289Z,102259.56
2022-10-07T10:35:34.129Z,102261.81
2022-10-07T10:38:27.707Z,102248.09
2022-10-07T10:41:08.737Z,102240.09
2022-10-07T10:44:10.845Z,102241.31
2022-10-07T10:47:15.487Z,102238.41
2022-10-07T10:50:14.217Z,102229.19
2022-10-07T10:52:50.838Z,102226.84
2022-10-07T10:55:33.603Z,102222.53
2022-10-07T10:58:15.510Z,102222.88
2022-10-07T11:01:08.918Z,102216.47
2022-10-07T11:04:00.228Z,102212.78
2022-10-07T11:06:35.681Z,102208.66
2022-10-07T11:09:07.924Z,102203.47
2022-10-07T11:11:39.090Z,102201.84
2022-10-07T11:14:23.002Z,102196.78
2022-10-07T11:16:58.623Z,102194.00
2022-10-07T11:19:47.000Z,102192.91
2022-10-07T11:22:22.014Z,102190.19
2022-10-07T11:24:57.281Z,102180.25
2022-10-07T11:27:32.861Z,102169.16
2022-10-07T11:30:20.357Z,102167.78
2022-10-07T11:32:56.211Z,102157.25
2022-10-07T11:35:26.743Z,102151.69
2022-10-07T11:38:15.501Z,102145.66
2022-10-07T11:40:48.929Z,102139.91
2022-10-07T11:43:28.369Z,102134.72
2022-10-07T11:46:17.573Z,102137.69
2022-10-07T11:48:57.511Z,102130.34
2022-10-07T11:51:30.778Z,102130.31
2022-10-07T11:54:07.146Z,102120.44
2022-10-07T11:56:49.657Z,102111.19
2022-10-07T11:59:35.239Z,102104.22
2022-10-07T12:02:07.113Z,102107.38
2022-10-07T12:04:39.885Z,102106.13
2022-10-07T12:07:46.043Z,102097.47
2022-10-07T12:10:30.181Z,102082.78
2022-10-07T12:13:05.235Z,102081.66
2022-10-07T12:15:45.289Z,102080.22
2022-10-07T12:18:18.685Z,102089.47
2022-10-07T12:20:55.051Z,102080.22
2022-10-07T12:23:26.387Z,102073.84
2022-10-07T12:26:05.048Z,102061.72
2022-10-07T12:28:37.355Z,102071.47
2022-10-07T12:31:08.868Z,102053.13
2022-10-07T12:33:48.652Z,102052.81
2022-10-07T12:36:24.957Z,102044.72
2022-10-07T12:39:00.300Z,102036.13
2022-10-07T12:41:33.632Z,102032.94
2022-10-07T12:44:25.932Z,102029.91
2022-10-07T12:46:57.490Z,102020.81
2022-10-07T12:49:54.949Z,102021.25
2022-10-07T12:52:46.361Z,102011.22
2022-10-07T12:55:29.307Z,102010.91
2022-10-07T12:58:16.413Z,102004.38
2022-10-07T13:01:04.987Z,102005.16
2022-10-07T13:04:09.317Z,101995.16
2022-10-07T13:07:17.091Z,101991.47
2022-10-07T13:10:07.590Z,101983.66
2022-10-07T13:12:51.165Z,101988.09
2022-10-07T13:15:41.425Z,101976.78
2022-10-07T13:18:32.031Z,101977.59
2022-10-07T13:21:22.967Z,101970.25
2022-10-07T13:23:57.291Z,101970.41
2022-10-07T13:26:29.164Z,101967.00
2022-10-07T13:29:01.013Z,101967.16
2022-10-07T13:31:33.432Z,101962.25
2022-10-07T13:34:17.961Z,101966.22
2022-10-07T13:36:47.250Z,101951.09
2022-10-07T13:39:24.430Z,101949.03
2022-10-07T13:41:59.433Z,101951.09
2022-10-07T13:44:32.735Z,101939.94
2022-10-07T13:47:04.804Z,101941.19
2022-10-07T13:49:55.997Z,101921.31
2022-10-07T13:52:39.635Z,101917.34
2022-10-07T13:55:32.699Z,101917.34
2022-10-07T13:58:06.450Z,101919.56
2022-10-07T14:00:43.291Z,101908.72
2022-10-07T14:03:20.083Z,101907.75
2022-10-07T14:06:00.853Z,101909.19
2022-10-07T14:08:31.776Z,101895.63
2022-10-07T14:11:10.035Z,101903.28
2022-10-07T14:13:39.528Z,101907.56
2022-10-07T14:16:08.990Z,101899.94
2022-10-07T14:18:38.307Z,101887.66
2022-10-07T14:21:17.048Z,101881.59
2022-10-07T14:23:48.833Z,101873.78
2022-10-07T14:26:19.092Z,101871.41
2022-10-07T14:28:48.688Z,101874.88
2022-10-07T14:31:30.512Z,101873.31
2022-10-07T14:34:12.353Z,101875.19
2022-10-07T14:37:13.803Z,101866.56
2022-10-07T14:39:51.193Z,101863.41
2022-10-07T14:42:32.974Z,101865.19
2022-10-07T14:45:08.299Z,101849.72
2022-10-07T14:47:41.468Z,101853.06
2022-10-07T14:50:11.319Z,101853.22
2022-10-07T14:52:47.697Z,101853.06
2022-10-07T14:55:29.135Z,101844.16
2022-10-07T14:58:00.478Z,101841.78
2022-10-07T15:00:32.897Z,101838.59
2022-10-07T15:03:06.110Z,101842.81
2022-10-07T15:05:35.490Z,101834.72
2022-10-07T15:08:04.963Z,101830.88
2022-10-07T15:10:34.858Z,101830.22
2022-10-07T15:13:08.713Z,101828.63
2022-10-07T15:15:46.199Z,101826.72
2022-10-07T15:18:15.523Z,101824.81
2022-10-07T15:20:44.911Z,101822.53
2022-10-07T15:23:14.888Z,101812.84
2022-10-07T15:25:44.695Z,101813.03
2022-10-07T15:28:15.539Z,101816.81
2022-10-07T15:30:45.031Z,101813.91
2022-10-07T15:33:14.888Z,101805.47
2022-10-07T15:35:46.322Z,101811.53
2022-10-07T15:38:15.599Z,101809.16
2022-10-07T15:40:56.357Z,101803.72
2022-10-07T15:43:26.238Z,101812.78
2022-10-07T15:45:55.834Z,101788.44
2022-10-07T15:48:26.119Z,101787.78
2022-10-07T15:50:56.394Z,101792.84
2022-10-07T15:53:26.921Z,101784.56
2022-10-07T15:55:58.893Z,101777.03
2022-10-07T15:58:32.002Z,101777.03
2022-10-07T16:01:05.404Z,101773.06
2022-10-07T16:03:43.619Z,101785.56
2022-10-07T16:06:17.421Z,101776.44
2022-10-07T16:08:47.023Z,101784.38
2022-10-07T16:11:17.238Z,101769.09
2022-10-07T16:13:48.138Z,101772.06
2022-10-07T16:16:23.434Z,101770.28
2022-10-07T16:18:55.486Z,101768.16
2022-10-07T16:21:30.600Z,101766.03
2022-10-07T16:24:09.776Z,101759.13
2022-10-07T16:26:39.488Z,101758.59
2022-10-07T16:29:23.089Z,101768.22
2022-10-07T16:31:59.149Z,101759.34
2022-10-07T16:34:30.368Z,101770.22
2022-10-07T16:37:01.028Z,101768.50
2022-10-07T16:39:30.324Z,101774.94
2022-10-07T16:41:59.989Z,101770.25
2022-10-07T16:44:29.776Z,101772.19
2022-10-07T16:46:59.565Z,101770.75
2022-10-07T16:49:30.414Z,101771.88
2022-10-07T16:52:00.605Z,101768.16
2022-10-07T16:54:31.958Z,101772.13
2022-10-07T16:57:01.263Z,101773.63
2022-10-07T16:59:30.879Z,101764.25
2022-10-07T17:02:02.699Z,101760.00
2022-10-07T17:04:32.302Z,101761.03
2022-10-07T17:07:02.089Z,101767.75
2022-10-07T17:09:31.416Z,101769.56
2022-10-07T17:12:00.735Z,101766.56
2022-10-07T17:14:31.693Z,101756.53
2022-10-07T17:17:01.567Z,101760.03
2022-10-07T17:19:31.661Z,101753.66
2022-10-07T17:22:02.789Z,101757.16
2022-10-07T17:24:34.835Z,101762.63
2022-10-07T17:27:04.103Z,101764.09
2022-10-07T17:29:34.298Z,101757.44
2022-10-07T17:32:04.158Z,101773.34
2022-10-07T17:34:34.345Z,101762.06
2022-10-07T17:37:03.611Z,101763.84
2022-10-07T17:39:33.681Z,101762.72
2022-10-07T17:42:03.019Z,101752.75
2022-10-07T17:44:35.270Z,101773.19
2022-10-07T17:47:05.331Z,101772.13
2022-10-07T17:49:35.022Z,101773.59
2022-10-07T17:52:04.336Z,101768.09
2022-10-07T17:54:33.736Z,101770.56
2022-10-07T17:57:04.384Z,101778.03
2022-10-07T17:59:34.038Z,101768.41
2022-10-07T18:02:03.356Z,101774.19
2022-10-07T18:04:32.669Z,101776.78
2022-10-07T18:07:01.962Z,101768.69
2022-10-07T18:09:31.245Z,101772.00
2022-10-07T18:12:13.028Z,101769.69
2022-10-07T18:14:54.774Z,101769.06
2022-10-07T18:17:25.168Z,101763.47
2022-10-07T18:19:54.787Z,101752.97
2022-10-07T18:22:24.393Z,101748.88
2022-10-07T18:24:57.132Z,101736.97
2022-10-07T18:27:27.600Z,101753.16
2022-10-07T18:29:57.821Z,101758.13
2022-10-07T18:32:27.635Z,101755.00
2022-10-07T18:34:56.912Z,101749.06
2022-10-07T18:37:26.391Z,101746.38
2022-10-07T18:39:55.690Z,101743.97
2022-10-07T18:42:25.000Z,101752.19
2022-10-07T18:44:55.006Z,101746.59
2022-10-07T18:47:24.693Z,101747.38
2022-10-07T18:49:57.092Z,101739.66
2022-10-07T18:52:26.368Z,101746.59
2022-10-07T18:54:55.825Z,101745.44
2022-10-07T18:57:25.156Z,101737.78
2022-10-07T18:59:54.405Z,101725.88
2022-10-07T19:02:23.690Z,101744.25
2022-10-07T19:04:53.395Z,101745.22
2022-10-07T19:07:22.654Z,101748.59
2022-10-07T19:09:51.912Z,101748.59
2022-10-07T19:12:33.648Z,101750.34
2022-10-07T19:15:02.893Z,101681.69
2022-10-07T19:17:32.167Z,101729.69
2022-10-07T19:20:01.617Z,101750.56
2022-10-07T19:22:30.892Z,101751.00
2022-10-07T19:25:12.672Z,101745.97
2022-10-07T19:27:41.907Z,101745.19
2022-10-07T19:30:11.813Z,101741.19
2022-10-07T19:32:41.119Z,101742.06
2022-10-07T19:35:10.666Z,101751.78
2022-10-07T19:37:42.009Z,101746.19
2022-10-07T19:40:12.459Z,101733.34
2022-10-07T19:42:41.837Z,101724.59
2022-10-07T19:45:12.205Z,101732.97
2022-10-07T19:47:41.493Z,101726.13
2022-10-07T19:50:11.275Z,101729.91
2022-10-07T19:52:40.557Z,101724.25
2022-10-07T19:55:10.431Z,101722.63
2022-10-07T19:57:40.019Z,101731.22
2022-10-07T20:00:09.848Z,101719.19
2022-10-07T20:02:41.594Z,101726.13
2022-10-07T20:05:11.126Z,101717.25
2022-10-07T20:07:40.348Z,101707.16
2022-10-07T20:10:10.240Z,101714.47
2022-10-07T20:12:39.988Z,101703.56
2022-10-07T20:15:10.194Z,101708.88
2022-10-07T20:17:39.602Z,101717.09
2022-10-07T20:20:09.299Z,101705.00
2022-10-07T20:22:38.568Z,101710.72
2022-10-07T20:25:08.433Z,101710.72
2022-10-07T20:27:37.819Z,101714.78
2022-10-07T20:30:17.491Z,101712.41
2022-10-07T20:32:47.740Z,101704.31
2022-10-07T20:35:17.271Z,101705.09
2022-10-07T20:37:46.588Z,101697.13
2022-10-07T20:40:28.385Z,101696.69
2022-10-07T20:42:58.735Z,101707.66
2022-10-07T20:45:28.056Z,101701.97
2022-10-07T20:47:59.635Z,101691.50
2022-10-07T20:50:28.889Z,101703.34
2022-10-07T20:52:58.170Z,101701.31
2022-10-07T20:55:27.483Z,101692.38
2022-10-07T20:57:56.807Z,101687.56
2022-10-07T21:00:26.099Z,101680.69
2022-10-07T21:02:55.477Z,101687.56
2022-10-07T21:05:24.776Z,101684.75
2022-10-07T21:07:54.911Z,101672.41
2022-10-07T21:10:24.345Z,101673.09
2022-10-07T21:12:53.694Z,101684.50
2022-10-07T21:15:22.990Z,101689.78
2022-10-07T21:17:52.255Z,101680.50
2022-10-07T21:20:21.540Z,101682.53
2022-10-07T21:22:52.176Z,101687.03
2022-10-07T21:25:21.485Z,101680.91
2022-10-07T21:27:50.755Z,101680.59
2022-10-07T21:30:20.209Z,101684.63
2022-10-07T21:32:50.116Z,101679.78
2022-10-07T21:35:19.489Z,101681.41
2022-10-07T21:37:48.758Z,101672.94
2022-10-07T21:40:18.050Z,101668.13
2022-10-07T21:42:47.649Z,101675.38
2022-10-07T21:45:17.140Z,101596.13
2022-10-07T21:47:46.390Z,101674.59
2022-10-07T21:50:15.720Z,101663.69
2022-10-07T21:52:45.302Z,101666.50
2022-10-07T21:55:14.828Z,101666.50
2022-10-07T21:57:44.065Z,101668.50
2022-10-07T22:00:14.239Z,101654.84
2022-10-07T22:02:43.634Z,101651.50
2022-10-07T22:05:15.327Z,101649.81
2022-10-07T22:08:02.563Z,101659.50
2022-10-07T22:10:31.815Z,101657.03
2022-10-07T22:13:01.062Z,101644.91
2022-10-07T22:15:30.430Z,101643.25
2022-10-07T22:17:59.760Z,101643.25
2022-10-07T22:20:29.066Z,101642.00
2022-10-07T22:23:00.059Z,101639.09
2022-10-07T22:25:29.499Z,101636.19
2022-10-07T22:27:58.922Z,101635.75
2022-10-07T22:30:28.333Z,101638.19
2022-10-07T22:32:57.731Z,101632.88
2022-10-07T22:35:27.634Z,101624.38
2022-10-07T22:37:58.765Z,101621.09
2022-10-07T22:40:29.046Z,101621.53
2022-10-07T22:42:58.391Z,101617.09
2022-10-07T22:45:27.648Z,101624.00
2022-10-07T22:47:56.880Z,101617.09
2022-10-07T22:50:26.163Z,101613.88
2022-10-07T22:52:56.852Z,101620.44
2022-10-07T22:55:27.151Z,101610.31
2022-10-07T22:57:56.519Z,101613.97
2022-10-07T23:00:25.788Z,101606.03
2022-10-07T23:02:56.399Z,101611.63
2022-10-07T23:05:25.718Z,101612.44
2022-10-07T23:07:55.347Z,101614.91
2022-10-07T23:10:25.377Z,101615.75
2022-10-07T23:12:54.756Z,101618.19
2022-10-07T23:15:24.005Z,101613.38
2022-10-07T23:17:53.272Z,101610.09
2022-10-07T23:20:25.555Z,101590.78
2022-10-07T23:22:54.781Z,101606.63
2022-10-07T23:25:26.338Z,101585.69
2022-10-07T23:27:55.621Z,101600.38
2022-10-07T23:30:24.874Z,101591.81
2022-10-07T23:32:54.120Z,101591.66
2022-10-07T23:35:23.452Z,101590.88
2022-10-07T23:37:54.064Z,101582.72
2022-10-07T23:40:23.896Z,101575.34
2022-10-07T23:42:53.173Z,101577.72
2022-10-07T23:45:22.419Z,101572.06
2022-10-07T23:47:51.697Z,101563.19
2022-10-07T23:50:21.045Z,101571.97
2022-10-07T23:52:50.389Z,101566.22
2022-10-07T23:55:19.755Z,101564.56
2022-10-07T23:57:49.047Z,101554.88
